Time;durP1;ratioP1;P1;durP2;ratioP2;P2;SDS_P1;SDS_P2;PMS_P1;PMS_P2;Temp;Humidity;BMP_temperature;BMP_pressure;BME280_temperature;BME280_humidity;BME280_pressure;Samples;Min_cycle;Max_cycle;Signal;HPM_P1;HPM_P2
2022/05/05 00:01:38;;;;;;;6.75;4.35;;;333.20;2329.60;;;;;;5040062;28;20032;-54
2022/05/05 00:04:04;;;;;;;15.85;9.02;;;333.20;2329.60;;;;;;5038102;28;20017;-54
2022/05/05 00:06:30;;;;;;;7.47;4.50;;;333.10;2329.60;;;;;;5038985;28;20029;-53
2022/05/05 00:08:56;;;;;;;12.95;7.72;;;333.20;2329.60;;;;;;5039736;28;20464;-55
2022/05/05 00:14:27;;;;;;;7.72;4.80;;;333.20;2329.60;;;;;;5042302;28;20107;-53
2022/05/05 00:17:04;;;;;;;5.38;3.97;;;333.20;2329.60;;;;;;5050215;28;20045;-54
2022/05/05 00:19:32;;;;;;;6.93;4.28;;;333.20;2329.60;;;;;;5041477;28;20028;-54
2022/05/05 00:21:58;;;;;;;8.05;4.63;;;333.20;2329.60;;;;;;5042576;28;20032;-51
2022/05/05 00:24:25;;;;;;;7.22;4.90;;;333.10;2329.60;;;;;;5032499;28;20017;-53
2022/05/05 00:26:50;;;;;;;8.68;4.85;;;333.20;2329.60;;;;;;5030232;28;20040;-53
2022/05/05 00:29:16;;;;;;;6.32;3.25;;;333.00;2329.60;;;;;;5030354;28;20025;-53
2022/05/05 00:31:43;;;;;;;6.00;3.95;;;333.00;2329.60;;;;;;5030201;28;20026;-53
2022/05/05 00:34:09;;;;;;;9.10;4.15;;;332.90;2329.60;;;;;;5030243;28;20043;-53
2022/05/05 00:36:35;;;;;;;6.07;3.75;;;333.00;2329.60;;;;;;5029496;28;20041;-55
2022/05/05 00:39:02;;;;;;;7.35;3.70;;;333.00;2329.60;;;;;;5029749;28;20057;-55
2022/05/05 00:41:35;;;;;;;7.63;4.05;;;332.90;2329.60;;;;;;5030034;28;20472;-53
2022/05/05 00:44:03;;;;;;;4.55;3.13;;;332.90;2329.60;;;;;;5030029;28;20029;-54
2022/05/05 00:46:29;;;;;;;12.82;5.93;;;332.90;2329.60;;;;;;5030198;28;20036;-54
2022/05/05 00:48:55;;;;;;;7.25;4.72;;;332.90;2329.60;;;;;;5029727;28;20026;-53
2022/05/05 00:51:21;;;;;;;7.95;4.45;;;332.90;2329.60;;;;;;5029773;28;20029;-55
2022/05/05 00:53:47;;;;;;;8.05;3.72;;;332.80;2329.60;;;;;;5029928;28;20490;-54
2022/05/05 00:56:14;;;;;;;6.38;4.45;;;332.80;2329.60;;;;;;5029683;28;20025;-52
2022/05/05 00:58:51;;;;;;;5.65;4.05;;;332.80;2329.60;;;;;;5031618;28;20038;-53
2022/05/05 01:01:21;;;;;;;5.18;3.70;;;308.10;2304.00;;;;;;5033948;28;20058;-54
2022/05/05 01:03:48;;;;;;;5.18;3.67;;;308.10;2304.00;;;;;;5034130;28;20038;-54
2022/05/05 01:06:14;;;;;;;7.03;3.90;;;308.00;2304.00;;;;;;5033486;28;20068;-54
2022/05/05 01:08:41;;;;;;;5.43;3.92;;;308.10;2304.00;;;;;;5033778;28;20029;-54
2022/05/05 01:11:07;;;;;;;5.82;4.00;;;308.00;2304.00;;;;;;5033614;28;20026;-54
2022/05/05 01:13:36;;;;;;;6.10;3.58;;;308.00;2304.00;;;;;;5032736;28;20388;-54
2022/05/05 01:16:04;;;;;;;5.30;3.35;;;308.10;2304.00;;;;;;5033289;28;20026;-55
2022/05/05 01:18:29;;;;;;;6.28;3.88;;;308.00;2304.00;;;;;;5033691;28;20021;-54
2022/05/05 01:20:55;;;;;;;7.10;3.53;;;307.80;2304.00;;;;;;5033351;28;20028;-55
2022/05/05 01:23:22;;;;;;;6.68;4.47;;;307.80;2304.00;;;;;;5033259;28;20386;-55
2022/05/05 01:28:39;;;;;;;4.53;3.00;;;307.80;2304.00;;;;;;5050874;28;20472;-54
2022/05/05 01:31:05;;;;;;;5.00;3.17;;;307.70;2304.00;;;;;;5050716;28;20044;-55
2022/05/05 01:33:31;;;;;;;5.20;3.83;;;307.60;2304.00;;;;;;5050917;28;20041;-54
2022/05/05 01:35:58;;;;;;;5.18;3.53;;;307.70;2304.00;;;;;;5050627;28;20033;-54
2022/05/05 01:38:30;;;;;;;5.78;3.97;;;307.50;2304.00;;;;;;5050575;28;20061;-55
2022/05/05 01:40:56;;;;;;;5.97;3.83;;;307.20;2304.00;;;;;;5050708;28;20434;-54
2022/05/05 01:43:22;;;;;;;6.50;3.53;;;282.30;2278.40;;;;;;5050698;28;20036;-54
2022/05/05 01:45:48;;;;;;;6.75;4.10;;;282.40;2278.40;;;;;;5050870;28;20120;-54
2022/05/05 01:48:14;;;;;;;8.13;4.03;;;282.50;2278.40;;;;;;5050636;28;20107;-54
2022/05/05 01:50:40;;;;;;;5.13;3.20;;;307.20;2304.00;;;;;;5050821;28;20379;-53
2022/05/05 01:53:06;;;;;;;7.53;4.00;;;307.30;2304.00;;;;;;5050205;28;20033;-53
2022/05/05 01:55:33;;;;;;;5.22;3.53;;;307.30;2304.00;;;;;;5050404;28;20025;-55
2022/05/05 01:58:02;;;;;;;6.25;3.72;;;307.30;2304.00;;;;;;5050436;28;20064;-53
2022/05/05 02:00:28;;;;;;;6.35;3.92;;;307.30;2304.00;;;;;;5050530;28;20155;-54
2022/05/05 02:02:55;;;;;;;6.28;3.80;;;307.20;2304.00;;;;;;5050245;28;20108;-55
2022/05/05 02:05:21;;;;;;;4.55;3.45;;;307.20;2304.00;;;;;;5043590;28;20034;-55
2022/05/05 02:07:47;;;;;;;6.65;4.57;;;307.30;2304.00;;;;;;5032488;28;20038;-55
2022/05/05 02:10:16;;;;;;;7.68;4.35;;;307.20;2304.00;;;;;;5032176;28;20029;-55
2022/05/05 02:12:43;;;;;;;4.85;3.58;;;307.20;2304.00;;;;;;5032406;28;20032;-55
2022/05/05 02:15:10;;;;;;;5.25;3.35;;;307.30;2304.00;;;;;;5032696;28;20034;-54
2022/05/05 02:17:38;;;;;;;6.57;4.40;;;307.30;2304.00;;;;;;5032498;28;20112;-55
2022/05/05 02:20:06;;;;;;;6.18;3.70;;;307.20;2304.00;;;;;;5032438;28;20065;-55
2022/05/05 02:22:32;;;;;;;7.43;3.65;;;307.20;2304.00;;;;;;5031967;28;20084;-56
2022/05/05 02:24:57;;;;;;;5.50;3.42;;;307.20;2304.00;;;;;;5032575;28;20026;-54
2022/05/05 02:27:23;;;;;;;5.47;3.65;;;282.30;2278.40;;;;;;5032005;28;20106;-55
2022/05/05 02:29:50;;;;;;;8.10;3.55;;;282.20;2278.40;;;;;;5032410;28;20031;-56
2022/05/05 02:32:16;;;;;;;6.25;4.20;;;282.10;2278.40;;;;;;5032253;28;20075;-55
2022/05/05 02:34:43;;;;;;;6.55;4.22;;;282.30;2278.40;;;;;;5032001;28;20026;-54
2022/05/05 02:39:53;;;;;;;5.78;3.80;;;282.30;2278.40;;;;;;5032072;28;20028;-53
2022/05/05 02:42:22;;;;;;;8.38;3.70;;;282.30;2278.40;;;;;;5031903;28;20022;-51
2022/05/05 02:44:48;;;;;;;6.28;3.55;;;282.30;2278.40;;;;;;5031882;28;20048;-53
2022/05/05 02:47:14;;;;;;;6.88;3.90;;;282.30;2278.40;;;;;;5031819;28;20068;-52
2022/05/05 02:49:40;;;;;;;5.60;3.30;;;282.30;2278.40;;;;;;5031773;28;20021;-53
2022/05/05 02:52:07;;;;;;;5.00;3.20;;;282.20;2278.40;;;;;;5031620;28;20033;-54
2022/05/05 02:54:54;;;;;;;5.78;3.50;;;282.30;2278.40;;;;;;5031516;28;20490;-54
2022/05/05 02:57:23;;;;;;;4.93;3.67;;;282.20;2278.40;;;;;;5031647;28;20055;-53
2022/05/05 02:59:50;;;;;;;5.75;3.78;;;282.10;2278.40;;;;;;5031580;28;20057;-55
2022/05/05 03:02:17;;;;;;;4.90;3.25;;;282.00;2278.40;;;;;;5031368;28;20132;-53
2022/05/05 03:04:43;;;;;;;5.25;3.08;;;282.00;2278.40;;;;;;5031254;28;20017;-54
2022/05/05 03:07:08;;;;;;;5.18;3.55;;;282.00;2278.40;;;;;;5031385;28;20060;-53
2022/05/05 03:09:34;;;;;;;7.57;4.50;;;282.00;2278.40;;;;;;5031419;28;20049;-54
2022/05/05 03:12:00;;;;;;;6.60;3.88;;;281.90;2278.40;;;;;;5031553;28;20507;-53
2022/05/05 03:14:26;;;;;;;6.45;3.33;;;281.90;2278.40;;;;;;5031195;28;20071;-53
2022/05/05 03:16:51;;;;;;;4.72;3.25;;;281.90;2278.40;;;;;;5031123;28;20041;-54
2022/05/05 03:19:17;;;;;;;6.10;4.38;;;281.60;2278.40;;;;;;5031300;28;20025;-52
2022/05/05 03:21:43;;;;;;;6.05;3.50;;;281.70;2278.40;;;;;;5030366;28;20164;-53
2022/05/05 03:24:09;;;;;;;5.50;3.38;;;281.70;2278.40;;;;;;5031365;28;20032;-53
2022/05/05 03:26:35;;;;;;;5.85;3.50;;;281.90;2278.40;;;;;;5030954;28;20529;-53
2022/05/05 03:29:01;;;;;;;4.03;3.22;;;282.00;2278.40;;;;;;5031107;28;20144;-53
2022/05/05 03:31:26;;;;;;;5.63;3.40;;;282.00;2278.40;;;;;;5030826;28;20056;-53
2022/05/05 03:33:53;;;;;;;5.15;3.45;;;282.10;2278.40;;;;;;5030779;28;20033;-53
2022/05/05 03:36:19;;;;;;;7.68;3.90;;;282.10;2278.40;;;;;;5030590;28;20042;-53
2022/05/05 03:38:45;;;;;;;5.18;3.75;;;282.20;2278.40;;;;;;5030682;28;20152;-53
2022/05/05 03:41:11;;;;;;;4.80;3.35;;;282.30;2278.40;;;;;;5030672;28;20021;-54
2022/05/05 03:43:36;;;;;;;5.00;3.50;;;282.30;2278.40;;;;;;5030903;28;20056;-53
2022/05/05 03:46:02;;;;;;;7.05;5.28;;;282.30;2278.40;;;;;;5030616;28;20067;-53
2022/05/05 03:48:32;;;;;;;6.53;3.33;;;282.40;2278.40;;;;;;5030808;28;20029;-53
2022/05/05 03:50:57;;;;;;;4.53;3.50;;;282.50;2278.40;;;;;;5030756;28;20049;-53
2022/05/05 03:53:23;;;;;;;7.10;3.83;;;282.40;2278.40;;;;;;5030578;28;20018;-53
2022/05/05 03:55:49;;;;;;;6.85;4.05;;;282.40;2278.40;;;;;;5030582;28;20472;-52
2022/05/05 03:58:14;;;;;;;6.88;4.25;;;282.50;2278.40;;;;;;5030487;28;20083;-52
2022/05/05 04:00:40;;;;;;;4.75;3.33;;;307.20;2304.00;;;;;;5030837;28;20486;-52
2022/05/05 04:05:50;;;;;;;8.52;3.90;;;307.40;2304.00;;;;;;5030717;28;20474;-52
2022/05/05 04:08:16;;;;;;;7.18;4.43;;;307.40;2304.00;;;;;;5030512;28;20025;-52
2022/05/05 04:10:42;;;;;;;7.50;3.92;;;307.40;2304.00;;;;;;5030288;28;20033;-52
2022/05/05 04:13:08;;;;;;;5.68;3.65;;;307.40;2304.00;;;;;;5030385;28;20033;-55
2022/05/05 04:15:36;;;;;;;8.55;7.13;;;307.50;2304.00;;;;;;5030038;28;20021;-53
2022/05/05 04:18:02;;;;;;;9.10;5.88;;;307.60;2304.00;;;;;;5029905;28;20095;-53
2022/05/05 04:20:28;;;;;;;6.60;4.40;;;307.80;2304.00;;;;;;5030239;28;20480;-52
2022/05/05 04:22:55;;;;;;;5.72;3.72;;;307.80;2304.00;;;;;;5030102;28;20079;-52
2022/05/05 04:25:21;;;;;;;6.18;4.13;;;307.80;2304.00;;;;;;5029947;28;20112;-53
2022/05/05 04:27:49;;;;;;;6.70;4.10;;;307.90;2304.00;;;;;;5030413;28;20446;-55
2022/05/05 04:30:16;;;;;;;5.55;3.63;;;308.10;2304.00;;;;;;5030096;28;20056;-54
2022/05/05 04:32:42;;;;;;;6.72;3.95;;;332.80;2329.60;;;;;;5029700;28;20025;-56
2022/05/05 04:35:09;;;;;;;7.07;3.30;;;332.80;2329.60;;;;;;5032351;28;20391;-56
2022/05/05 04:37:34;;;;;;;5.78;3.95;;;308.00;2304.00;;;;;;5029461;28;20084;-55
2022/05/05 04:40:00;;;;;;;5.60;3.45;;;332.80;2329.60;;;;;;5030108;28;20048;-55
2022/05/05 04:42:26;;;;;;;6.95;4.20;;;332.90;2329.60;;;;;;5029974;28;20104;-56
2022/05/05 04:44:52;;;;;;;6.07;3.70;;;333.20;2329.60;;;;;;5029765;28;20029;-56
2022/05/05 04:47:18;;;;;;;6.10;4.30;;;333.30;2329.60;;;;;;5029993;28;20459;-55
2022/05/05 04:49:43;;;;;;;4.82;3.38;;;333.70;2329.60;;;;;;5029753;28;20026;-55
2022/05/05 04:52:09;;;;;;;6.40;3.70;;;384.00;2329.60;;;;;;5029972;28;20033;-54
2022/05/05 04:54:35;;;;;;;5.60;3.92;;;486.50;2099.20;;;;;;5029639;28;20025;-55
2022/05/05 04:57:00;;;;;;;4.70;3.40;;;538.00;1792.00;;;;;;5029822;28;20035;-53
2022/05/05 04:59:27;;;;;;;5.15;3.60;;;589.20;1612.80;;;;;;5034218;28;20040;-55
2022/05/05 05:01:53;;;;;;;6.18;3.38;;;615.20;1484.80;;;;;;5037281;28;20022;-57
2022/05/05 05:04:18;;;;;;;4.78;3.17;;;665.90;1356.80;;;;;;5041873;28;20108;-56
2022/05/05 05:06:44;;;;;;;4.53;3.78;;;691.90;1280.00;;;;;;5039550;28;20120;-57
2022/05/05 05:09:10;;;;;;;4.50;3.42;;;742.60;1203.20;;;;;;5041641;28;20102;-56
2022/05/05 05:11:36;;;;;;;4.80;4.00;;;768.10;1152.00;;;;;;5049762;28;20028;-56
2022/05/05 05:14:02;;;;;;;5.03;4.53;;;793.70;1100.80;;;;;;5049659;28;20017;-55
2022/05/05 05:16:28;;;;;;;4.28;3.72;;;794.00;1100.80;;;;;;5049699;28;20032;-54
2022/05/05 05:18:54;;;;;;;8.90;5.00;;;794.40;1075.20;;;;;;5049426;28;20025;-57
2022/05/05 05:21:23;;;;;;;6.32;4.47;;;819.90;1049.60;;;;;;5049619;28;20025;-55
2022/05/05 05:23:50;;;;;;;4.93;4.43;;;819.50;1049.60;;;;;;5049601;28;20083;-55
2022/05/05 05:26:16;;;;;;;5.47;4.97;;;819.60;1049.60;;;;;;5049426;28;20027;-57
2022/05/05 05:28:42;;;;;;;5.22;4.57;;;845.00;1024.00;;;;;;5049307;28;20116;-57
2022/05/05 05:31:08;;;;;;;5.88;4.70;;;820.10;998.40;;;;;;5049573;28;20080;-56
2022/05/05 05:33:34;;;;;;;5.63;4.95;;;845.40;998.40;;;;;;5049195;28;20028;-56
2022/05/05 05:36:00;;;;;;;4.80;4.40;;;820.10;998.40;;;;;;5049180;28;20360;-55
2022/05/05 05:38:26;;;;;;;5.63;5.10;;;845.40;998.40;;;;;;5049440;28;20029;-56
2022/05/05 05:40:52;;;;;;;5.57;5.10;;;820.00;1024.00;;;;;;5049214;28;20021;-55
2022/05/05 05:43:18;;;;;;;7.45;6.75;;;844.90;1024.00;;;;;;5049571;28;20123;-56
2022/05/05 05:45:43;;;;;;;7.00;6.30;;;845.00;1024.00;;;;;;5052460;28;20027;-56
2022/05/05 05:48:09;;;;;;;7.50;6.93;;;844.90;1024.00;;;;;;5053054;28;20025;-55
2022/05/05 05:50:36;;;;;;;7.00;6.40;;;845.40;998.40;;;;;;5052765;28;20094;-55
2022/05/05 05:53:03;;;;;;;6.63;6.13;;;820.10;1024.00;;;;;;5052887;28;20391;-55
2022/05/05 05:55:29;;;;;;;6.38;5.88;;;871.10;972.80;;;;;;5053005;28;20029;-56
2022/05/05 05:57:54;;;;;;;7.43;6.80;;;870.50;998.40;;;;;;5052570;28;20045;-54
2022/05/05 06:00:20;;;;;;;7.90;7.20;;;870.60;998.40;;;;;;5052724;28;20471;-56
2022/05/05 06:05:30;;;;;;;6.65;6.05;;;896.90;947.20;;;;;;5052935;28;20039;-58
2022/05/05 06:08:00;;;;;;;7.28;6.78;;;922.50;921.60;;;;;;5052430;28;20036;-55
2022/05/05 06:10:27;;;;;;;7.28;6.78;;;972.80;921.60;;;;;;5052558;28;20111;-57
2022/05/05 06:12:54;;;;;;;7.65;7.03;;;998.70;896.00;;;;;;5052431;28;20155;-55
2022/05/05 06:15:20;;;;;;;7.60;6.95;;;1024.50;844.80;;;;;;5052556;28;20031;-56
2022/05/05 06:17:46;;;;;;;8.35;7.75;;;1024.30;844.80;;;;;;5052184;28;20094;-56
2022/05/05 06:20:12;;;;;;;8.60;7.97;;;998.80;870.40;;;;;;5052286;28;20029;-56
2022/05/05 06:22:38;;;;;;;8.60;7.90;;;999.10;870.40;;;;;;5050921;28;20041;-57
2022/05/05 06:25:05;;;;;;;8.02;7.43;;;1024.10;844.80;;;;;;5052189;28;20100;-57
2022/05/05 06:27:30;;;;;;;8.23;7.55;;;1024.70;819.20;;;;;;5052435;28;20211;-57
2022/05/05 06:29:56;;;;;;;8.48;7.78;;;999.10;870.40;;;;;;5050917;28;20467;-56
2022/05/05 06:32:22;;;;;;;8.23;7.63;;;998.80;870.40;;;;;;5051877;28;20120;-56
2022/05/05 06:34:48;;;;;;;7.80;7.30;;;999.30;844.80;;;;;;5052163;28;20031;-58
2022/05/05 06:37:13;;;;;;;7.22;6.65;;;1049.90;819.20;;;;;;5051646;28;20049;-57
2022/05/05 06:39:39;;;;;;;8.07;7.38;;;1050.30;819.20;;;;;;5051989;28;20520;-56
2022/05/05 06:42:06;;;;;;;9.13;8.43;;;1050.20;819.20;;;;;;5051856;28;20025;-56
2022/05/05 06:44:32;;;;;;;10.07;9.38;;;1050.20;819.20;;;;;;5051729;28;20057;-57
2022/05/05 06:46:59;;;;;;;8.93;8.27;;;1101.00;793.60;;;;;;5051893;28;20056;-56
2022/05/05 06:49:25;;;;;;;9.93;8.50;;;1101.70;742.40;;;;;;5051488;28;20104;-60
2022/05/05 06:51:51;;;;;;;9.95;9.23;;;1127.10;742.40;;;;;;5051652;28;20056;-57
2022/05/05 06:54:17;;;;;;;10.10;9.18;;;1127.10;716.80;;;;;;5051911;28;20104;-56
2022/05/05 06:56:42;;;;;;;10.23;9.50;;;1127.10;742.40;;;;;;5051410;28;20538;-57
2022/05/05 06:59:08;;;;;;;9.40;8.80;;;1127.00;742.40;;;;;;5051717;28;20504;-57
2022/05/05 07:01:52;;;;;;;8.93;8.13;;;1100.90;768.00;;;;;;5051453;28;20021;-56
2022/05/05 07:07:03;;;;;;;9.05;8.45;;;1101.50;716.80;;;;;;5051406;28;20044;-58
2022/05/05 07:12:13;;;;;;;9.48;8.90;;;1127.10;716.80;;;;;;5051508;28;20047;-56
2022/05/05 07:14:39;;;;;;;10.55;9.85;;;1152.60;665.60;;;;;;5051351;28;20025;-57
2022/05/05 07:17:05;;;;;;;10.70;10.10;;;1127.10;716.80;;;;;;5050997;28;20089;-58
2022/05/05 07:19:31;;;;;;;10.68;9.98;;;1152.00;716.80;;;;;;5051380;28;20041;-58
2022/05/05 07:21:56;;;;;;;10.57;9.93;;;1152.60;691.20;;;;;;5051320;28;20021;-57
2022/05/05 07:24:22;;;;;;;10.43;9.82;;;1127.10;716.80;;;;;;5050909;28;20536;-60
2022/05/05 07:26:48;;;;;;;11.23;10.52;;;1100.90;742.40;;;;;;5051196;28;20045;-58
2022/05/05 07:29:15;;;;;;;11.02;10.43;;;1152.70;665.60;;;;;;5050998;28;20039;-57
2022/05/05 07:31:41;;;;;;;10.15;9.48;;;1152.20;665.60;;;;;;5050951;28;20025;-56
2022/05/05 07:34:07;;;;;;;13.18;12.27;;;1152.70;665.60;;;;;;5050939;28;20033;-57
2022/05/05 07:36:33;;;;;;;11.75;10.93;;;1101.00;742.40;;;;;;5050422;28;20094;-57
2022/05/05 07:38:59;;;;;;;12.52;11.63;;;1101.70;716.80;;;;;;5050973;28;20070;-56
2022/05/05 07:41:25;;;;;;;10.80;10.00;;;1076.10;716.80;;;;;;5050706;28;20025;-57
2022/05/05 07:43:50;;;;;;;10.88;10.13;;;1152.00;691.20;;;;;;5050782;28;20490;-57
2022/05/05 07:46:19;;;;;;;10.30;9.60;;;1178.30;614.40;;;;;;5050920;28;20032;-58
2022/05/05 07:48:45;;;;;;;12.38;11.57;;;1152.50;640.00;;;;;;5050561;28;20379;-57
2022/05/05 07:51:11;;;;;;;10.35;9.65;;;1178.10;614.40;;;;;;5050566;28;20063;-57
2022/05/05 07:53:37;;;;;;;11.18;10.32;;;1152.90;640.00;;;;;;5050526;28;20028;-57
2022/05/05 07:56:03;;;;;;;11.10;10.35;;;1101.70;691.20;;;;;;5050302;28;20025;-57
2022/05/05 07:58:29;;;;;;;10.50;9.80;;;1178.00;614.40;;;;;;5050517;28;20167;-57
2022/05/05 08:00:55;;;;;;;10.40;9.80;;;1177.70;640.00;;;;;;5050257;28;20025;-63
2022/05/05 08:03:20;;;;;;;10.27;9.40;;;1101.40;665.60;;;;;;5050759;28;20044;-57
2022/05/05 08:05:46;;;;;;;10.63;9.93;;;1152.10;640.00;;;;;;5050156;28;20028;-57
2022/05/05 08:08:12;;;;;;;9.88;9.25;;;1152.10;665.60;;;;;;5049665;28;20064;-57
2022/05/05 08:10:38;;;;;;;9.38;8.77;;;1152.10;640.00;;;;;;5050461;28;20067;-57
2022/05/05 08:13:04;;;;;;;8.80;8.30;;;1152.60;665.60;;;;;;5050068;28;20207;-59
2022/05/05 08:15:30;;;;;;;8.77;8.07;;;1075.20;691.20;;;;;;5050463;28;20190;-58
2022/05/05 08:17:56;;;;;;;7.68;7.18;;;1126.80;665.60;;;;;;5050238;28;20048;-57
2022/05/05 08:20:22;;;;;;;8.77;8.27;;;1126.70;665.60;;;;;;5049961;28;20442;-57
2022/05/05 08:22:47;;;;;;;8.70;8.18;;;1126.80;691.20;;;;;;5050325;28;20446;-56
2022/05/05 08:30:41;;;;;;;5.40;5.00;;;947.60;768.00;;;;;;5049881;28;20077;-57
2022/05/05 08:33:07;;;;;;;5.10;4.68;;;871.30;793.60;;;;;;5050080;28;20029;-57
2022/05/05 08:35:33;;;;;;;5.15;4.25;;;870.50;870.40;;;;;;5049919;28;20049;-59
2022/05/05 08:37:59;;;;;;;4.22;3.78;;;845.40;870.40;;;;;;5049728;28;20561;-57
2022/05/05 08:40:27;;;;;;;7.18;4.18;;;844.90;896.00;;;;;;5049655;28;20025;-57
2022/05/05 08:42:53;;;;;;;4.70;4.25;;;819.80;896.00;;;;;;5049598;28;20025;-57
2022/05/05 08:45:20;;;;;;;3.97;3.58;;;794.10;921.60;;;;;;5049915;28;20463;-57
2022/05/05 08:47:47;;;;;;;4.45;3.40;;;794.50;921.60;;;;;;5049782;28;20112;-57
2022/05/05 08:50:14;;;;;;;4.78;3.50;;;768.60;896.00;;;;;;5049878;28;20017;-57
2022/05/05 08:52:48;;;;;;;4.60;3.28;;;768.00;921.60;;;;;;5049959;28;20025;-57
2022/05/05 08:55:16;;;;;;;4.25;3.22;;;768.10;921.60;;;;;;5049778;28;20094;-67
2022/05/05 08:57:42;;;;;;;3.53;3.13;;;742.50;972.80;;;;;;5049747;28;20086;-57
2022/05/05 09:00:10;;;;;;;3.33;3.00;;;742.40;998.40;;;;;;5050020;28;20036;-58
2022/05/05 09:02:36;;;;;;;5.35;3.08;;;717.20;972.80;;;;;;5049485;28;20025;-62
2022/05/05 09:05:03;;;;;;;4.05;3.22;;;717.20;998.40;;;;;;5049580;28;20463;-57
2022/05/05 09:07:55;;;;;;;4.07;2.95;;;717.20;998.40;;;;;;5049671;28;20037;-57
2022/05/05 09:10:21;;;;;;;5.05;3.53;;;717.20;972.80;;;;;;5049410;28;20067;-56
2022/05/05 09:13:00;;;;;;;5.78;3.22;;;717.20;972.80;;;;;;5049850;28;20487;-57
2022/05/05 09:15:35;;;;;;;5.28;3.22;;;717.60;998.40;;;;;;5049640;28;20013;-57
2022/05/05 09:18:18;;;;;;;5.70;3.00;;;717.60;947.20;;;;;;5049563;28;20041;-57
2022/05/05 09:20:46;;;;;;;3.45;2.92;;;717.30;972.80;;;;;;5052890;28;20036;-57
2022/05/05 09:23:36;;;;;;;3.20;2.60;;;717.10;947.20;;;;;;5053215;28;20017;-57
2022/05/05 09:26:08;;;;;;;3.33;2.67;;;717.40;947.20;;;;;;5053234;28;20115;-59
2022/05/05 09:28:37;;;;;;;4.13;2.78;;;717.10;947.20;;;;;;5052246;28;20387;-61
2022/05/05 09:31:06;;;;;;;5.07;3.22;;;716.90;921.60;;;;;;5053014;28;20025;-57
2022/05/05 09:33:38;;;;;;;5.10;2.70;;;717.30;921.60;;;;;;5053025;28;20383;-65
2022/05/05 09:36:12;;;;;;;4.63;2.93;;;692.10;921.60;;;;;;5052723;28;20061;-57
2022/05/05 09:38:58;;;;;;;3.88;3.05;;;717.20;947.20;;;;;;5053029;28;20056;-55
2022/05/05 09:41:32;;;;;;;3.35;2.72;;;717.10;998.40;;;;;;5052751;28;20025;-57
2022/05/05 09:44:21;;;;;;;4.53;3.08;;;691.60;1024.00;;;;;;5053049;28;20029;-59
2022/05/05 09:46:48;;;;;;;3.80;3.00;;;692.10;1075.20;;;;;;5053137;28;20021;-57
2022/05/05 09:49:18;;;;;;;4.13;2.92;;;691.70;972.80;;;;;;5052905;28;20029;-57
2022/05/05 09:57:41;;;;;;;4.22;3.83;;;717.00;947.20;;;;;;5052698;28;20040;-58
2022/05/05 10:05:46;;;;;;;5.28;2.80;;;716.80;972.80;;;;;;5052771;28;20368;-57
2022/05/05 10:08:15;;;;;;;4.25;3.25;;;716.90;998.40;;;;;;5052414;28;20056;-58
2022/05/05 10:10:42;;;;;;;3.55;2.67;;;691.60;947.20;;;;;;5052556;28;20021;-57
2022/05/05 10:13:10;;;;;;;4.05;3.25;;;691.70;972.80;;;;;;5052389;28;20031;-57
2022/05/05 10:15:37;;;;;;;3.60;2.17;;;691.80;972.80;;;;;;5052209;28;20021;-57
2022/05/05 10:18:04;;;;;;;4.05;2.97;;;716.90;1024.00;;;;;;5052193;28;20033;-57
2022/05/05 10:20:34;;;;;;;3.65;2.63;;;717.00;972.80;;;;;;5052276;28;20025;-57
2022/05/05 10:23:11;;;;;;;4.13;3.08;;;692.10;947.20;;;;;;5052382;28;20052;-57
2022/05/05 10:25:39;;;;;;;4.32;2.92;;;691.60;972.80;;;;;;5052231;28;20436;-57
2022/05/05 10:28:40;;;;;;;3.70;2.55;;;691.40;972.80;;;;;;5052075;28;20025;-57
2022/05/05 10:31:37;;;;;;;3.53;2.58;;;691.90;972.80;;;;;;5051150;28;20033;-57
2022/05/05 10:34:06;;;;;;;3.40;2.60;;;691.90;972.80;;;;;;5049500;28;20030;-57
2022/05/05 10:36:34;;;;;;;3.63;2.78;;;691.80;972.80;;;;;;5049383;28;20095;-57
2022/05/05 10:39:18;;;;;;;4.72;3.28;;;691.30;998.40;;;;;;5049759;28;20036;-57
2022/05/05 10:41:44;;;;;;;4.07;2.83;;;691.20;998.40;;;;;;5049645;28;20048;-57
2022/05/05 10:44:23;;;;;;;6.28;2.88;;;666.30;998.40;;;;;;5049824;28;20033;-57
2022/05/05 10:47:03;;;;;;;3.60;2.70;;;691.40;1049.60;;;;;;5049699;28;20028;-58
2022/05/05 10:49:37;;;;;;;5.32;2.80;;;691.30;1100.80;;;;;;5049714;28;20028;-57
2022/05/05 10:52:11;;;;;;;3.83;2.92;;;691.40;1152.00;;;;;;5032619;28;20035;-58
2022/05/05 10:54:48;;;;;;;3.90;2.95;;;691.30;1152.00;;;;;;5049705;28;20094;-57
2022/05/05 10:57:40;;;;;;;4.00;3.05;;;691.40;1100.80;;;;;;5049360;28;20561;-57
2022/05/05 11:00:09;;;;;;;3.55;2.85;;;691.40;1152.00;;;;;;5046013;28;20448;-64
2022/05/05 11:02:37;;;;;;;3.45;2.60;;;666.50;1075.20;;;;;;5049302;28;20053;-57
2022/05/05 11:05:30;;;;;;;3.38;2.75;;;666.20;1075.20;;;;;;5049049;28;20506;-58
2022/05/05 11:08:08;;;;;;;3.65;2.72;;;666.50;1100.80;;;;;;4970070;28;20106;-57
2022/05/05 11:10:47;;;;;;;3.63;3.05;;;691.30;1100.80;;;;;;4978502;28;20030;-57
2022/05/05 11:13:31;;;;;;;3.80;3.20;;;691.40;1100.80;;;;;;4989856;28;20046;-58
2022/05/05 11:22:05;;;;;;;4.40;2.50;;;717.10;1075.20;;;;;;4989961;28;20053;-56
2022/05/05 11:24:31;;;;;;;4.05;3.47;;;717.10;998.40;;;;;;4989648;28;20105;-57
2022/05/05 11:26:57;;;;;;;4.38;2.80;;;692.00;972.80;;;;;;4989823;28;20074;-63
2022/05/05 11:29:27;;;;;;;4.70;2.85;;;692.10;998.40;;;;;;4989491;28;20103;-57
2022/05/05 11:32:00;;;;;;;3.63;2.90;;;717.30;998.40;;;;;;4989430;28;20117;-58
2022/05/05 11:34:36;;;;;;;3.70;2.92;;;717.60;947.20;;;;;;4989387;28;20023;-57
2022/05/05 11:37:05;;;;;;;3.53;3.00;;;717.70;972.80;;;;;;4988961;28;20046;-57
2022/05/05 11:39:32;;;;;;;5.47;3.40;;;717.10;998.40;;;;;;4989457;28;20042;-58
2022/05/05 11:42:05;;;;;;;6.60;3.40;;;716.80;998.40;;;;;;4988818;28;20018;-62
2022/05/05 11:44:32;;;;;;;3.38;2.80;;;691.90;972.80;;;;;;5011149;28;20128;-56
2022/05/05 11:47:07;;;;;;;4.07;3.25;;;717.00;1024.00;;;;;;5050740;28;20033;-56
2022/05/05 11:49:35;;;;;;;5.20;3.42;;;692.00;998.40;;;;;;5050416;28;20029;-56
2022/05/05 11:52:01;;;;;;;3.60;2.85;;;691.60;998.40;;;;;;5050695;28;20037;-56
2022/05/05 11:54:29;;;;;;;3.97;3.03;;;691.50;998.40;;;;;;5050580;28;20025;-59
2022/05/05 11:56:55;;;;;;;4.18;3.03;;;691.60;1024.00;;;;;;5050328;28;20033;-55
2022/05/05 12:02:19;;;;;;;3.83;3.15;;;666.50;972.80;;;;;;5050223;28;20112;-59
2022/05/05 12:04:57;;;;;;;6.90;2.80;;;666.30;972.80;;;;;;5050378;28;20033;-57
2022/05/05 12:07:24;;;;;;;4.03;3.28;;;691.20;972.80;;;;;;5050190;28;20285;-57
2022/05/05 12:10:02;;;;;;;4.07;3.15;;;691.40;998.40;;;;;;5050320;28;20431;-57
2022/05/05 12:12:30;;;;;;;3.80;2.70;;;691.60;1024.00;;;;;;5050401;28;20111;-57
2022/05/05 12:15:02;;;;;;;5.32;2.92;;;691.80;998.40;;;;;;5050121;28;20087;-57
2022/05/05 12:17:39;;;;;;;3.15;2.50;;;691.60;972.80;;;;;;5050406;28;20033;-57
2022/05/05 12:20:07;;;;;;;3.55;2.63;;;691.50;972.80;;;;;;5050004;28;20060;-57
2022/05/05 12:22:34;;;;;;;5.15;2.58;;;691.30;947.20;;;;;;5049954;28;20468;-57
2022/05/05 12:25:15;;;;;;;4.15;3.00;;;666.30;947.20;;;;;;5050111;28;20029;-57
2022/05/05 12:27:46;;;;;;;3.83;2.80;;;666.30;947.20;;;;;;5050139;28;20475;-57
2022/05/05 12:30:28;;;;;;;3.90;3.00;;;666.20;947.20;;;;;;5050175;28;20420;-57
2022/05/05 12:32:54;;;;;;;5.73;2.93;;;691.30;998.40;;;;;;5049921;28;20059;-58
2022/05/05 12:35:32;;;;;;;4.43;3.20;;;691.80;1049.60;;;;;;5050134;28;20029;-57
2022/05/05 12:37:59;;;;;;;4.55;3.25;;;692.00;947.20;;;;;;5049654;28;20060;-59
2022/05/05 12:40:25;;;;;;;3.72;2.75;;;692.10;947.20;;;;;;5049850;28;20025;-57
2022/05/05 12:43:00;;;;;;;4.35;2.80;;;691.90;947.20;;;;;;5050150;28;20405;-57
2022/05/05 12:45:29;;;;;;;4.22;2.75;;;691.80;947.20;;;;;;5049772;28;20021;-57
2022/05/05 12:47:58;;;;;;;4.53;3.30;;;691.90;947.20;;;;;;5049776;28;20032;-59
2022/05/05 12:50:32;;;;;;;3.80;2.70;;;692.10;972.80;;;;;;5049689;28;20028;-56
2022/05/05 13:01:55;;;;;;;3.28;2.63;;;691.70;947.20;;;;;;5071821;28;20036;-58
2022/05/05 13:04:23;;;;;;;3.08;2.40;;;691.90;947.20;;;;;;5071535;28;20035;-57
2022/05/05 13:06:51;;;;;;;3.35;2.72;;;692.10;998.40;;;;;;5071554;28;20024;-58
2022/05/05 13:09:17;;;;;;;2.80;2.28;;;691.90;921.60;;;;;;5071411;28;20457;-58
2022/05/05 13:11:49;;;;;;;3.67;2.63;;;716.80;1024.00;;;;;;5071199;28;20024;-58
2022/05/05 13:14:15;;;;;;;8.60;3.40;;;716.80;972.80;;;;;;5071378;28;20060;-57
2022/05/05 13:16:42;;;;;;;4.63;3.33;;;716.90;972.80;;;;;;5071399;28;20028;-59
2022/05/05 13:19:09;;;;;;;4.30;3.05;;;692.10;947.20;;;;;;5071366;28;20082;-57